This is the latest recevied weather packets stored in our database for station/object W6ORV. If no packets are shown the sender has not sent any weather packets the latest 10 day(s).
| Time | Temp. | Humidity | Pressure | Rain* | Wind** | Luminosity | Snow |
|---|---|---|---|---|---|---|---|
| 1777586711 | 28.89° C | 30% | 4296.6 hPa | 0 mm | - | 701 W/m² | - |
| 1777586408 | 29.44° C | 29% | 4296.5 hPa | 0 mm | - | 705 W/m² | - |
| 1777586107 | 29.44° C | 30% | 4296.6 hPa | 0 mm | - | 692 W/m² | - |
| 1777585805 | 29.44° C | 31% | 4296.7 hPa | 0 mm | - | 690 W/m² | - |
| 1777585505 | 29.44° C | 32% | 4296.4 hPa | 0 mm | - | 707 W/m² | - |
| 1777585201 | 29.44° C | 31% | 4296.5 hPa | 0 mm | - | 721 W/m² | - |
| 1777584897 | 28.89° C | 33% | 4296.8 hPa | 0 mm | - | 712 W/m² | - |
| 1777584595 | 28.89° C | 33% | 4296.8 hPa | 0 mm | - | 723 W/m² | - |
| 1777584291 | 28.89° C | 30% | 4297 hPa | 0 mm | - | 739 W/m² | - |
| 1777583987 | 27.78° C | 32% | 4296.8 hPa | 0 mm | - | 746 W/m² | - |
| 1777583681 | 29.44° C | 30% | 4297 hPa | 0 mm | - | 732 W/m² | - |
| 1777583381 | 30° C | 30% | 4296.9 hPa | 0 mm | - | 757 W/m² | - |
| 1777583080 | 28.33° C | 32% | 4297.2 hPa | 0 mm | - | 753 W/m² | - |
| 1777582777 | 27.78° C | 32% | 4297.1 hPa | 0 mm | - | 745 W/m² | - |
| 1777582472 | 27.78° C | 32% | 4297.4 hPa | 0 mm | - | 724 W/m² | - |
| 1777582173 | 27.22° C | 34% | 4297.1 hPa | 0 mm | - | 705 W/m² | - |
| 1777581872 | 27.78° C | 32% | 4297.2 hPa | 0 mm | - | 696 W/m² | - |
| 1777581566 | 28.33° C | 32% | 4297.2 hPa | 0 mm | - | 702 W/m² | - |
| 1777581262 | 27.78° C | 33% | 4297.4 hPa | 0 mm | - | 732 W/m² | - |
| 1777580956 | 27.22° C | 34% | 4297.5 hPa | 0 mm | - | 758 W/m² | - |
| 1777580651 | 27.78° C | 32% | 4297.3 hPa | 0 mm | - | 770 W/m² | - |
| 1777580347 | 26.67° C | 33% | 4297.6 hPa | 0 mm | - | 778 W/m² | - |
| 1777580043 | 26.67° C | 35% | 4297.6 hPa | 0 mm | - | 776 W/m² | - |
| 1777579740 | 26.67° C | 33% | 4297.6 hPa | 0 mm | - | 772 W/m² | - |
| 1777579437 | 26.11° C | 35% | 4297.6 hPa | 0 mm | - | 725 W/m² | - |
* Rain latest hour (hover to see other rain measurements)
** Current wind speed in m/s (hover to see current wind gust speed)